sensor_id;sensor_type;location;lat;lon;timestamp;pressure;altitude;pressure_sealevel;temperature;humidity
62703;BME280;66022;50.448;18.122;2023-04-19T00:02:43;99550.27;;;11.06;97.65
62703;BME280;66022;50.448;18.122;2023-04-19T00:06:57;99544.48;;;11.02;99.75
62703;BME280;66022;50.448;18.122;2023-04-19T00:11:11;99539.63;;;10.99;97.81
62703;BME280;66022;50.448;18.122;2023-04-19T00:15:25;99535.83;;;10.97;97.50
62703;BME280;66022;50.448;18.122;2023-04-19T00:19:39;99532.99;;;10.95;97.94
62703;BME280;66022;50.448;18.122;2023-04-19T00:23:53;99528.29;;;10.94;97.41
62703;BME280;66022;50.448;18.122;2023-04-19T00:28:07;99523.80;;;10.92;98.01
62703;BME280;66022;50.448;18.122;2023-04-19T00:32:21;99518.50;;;10.92;97.48
62703;BME280;66022;50.448;18.122;2023-04-19T00:36:35;99513.36;;;10.89;100.00
62703;BME280;66022;50.448;18.122;2023-04-19T00:40:52;99509.84;;;10.89;98.12
62703;BME280;66022;50.448;18.122;2023-04-19T00:45:03;99507.68;;;10.87;97.29
62703;BME280;66022;50.448;18.122;2023-04-19T00:49:17;99503.85;;;10.86;97.70
62703;BME280;66022;50.448;18.122;2023-04-19T00:53:31;99499.81;;;10.85;97.20
62703;BME280;66022;50.448;18.122;2023-04-19T00:57:45;99495.50;;;10.82;98.22
62703;BME280;66022;50.448;18.122;2023-04-19T01:01:59;99490.89;;;10.81;96.93
62703;BME280;66022;50.448;18.122;2023-04-19T01:06:13;99485.53;;;10.75;100.00
62703;BME280;66022;50.448;18.122;2023-04-19T01:10:27;99478.78;;;10.74;96.91
62703;BME280;66022;50.448;18.122;2023-04-19T01:14:41;99472.17;;;10.71;96.96
62703;BME280;66022;50.448;18.122;2023-04-19T01:18:55;99467.19;;;10.69;96.97
62703;BME280;66022;50.448;18.122;2023-04-19T01:23:09;99462.08;;;10.67;96.21
62703;BME280;66022;50.448;18.122;2023-04-19T01:27:23;99456.50;;;10.65;97.93
62703;BME280;66022;50.448;18.122;2023-04-19T01:31:37;99451.48;;;10.65;96.24
62703;BME280;66022;50.448;18.122;2023-04-19T01:35:51;99445.40;;;10.61;99.77
62703;BME280;66022;50.448;18.122;2023-04-19T01:40:05;99438.95;;;10.60;96.34
62703;BME280;66022;50.448;18.122;2023-04-19T01:44:19;99432.50;;;10.59;96.16
62703;BME280;66022;50.448;18.122;2023-04-19T01:48:33;99425.73;;;10.56;96.55
62703;BME280;66022;50.448;18.122;2023-04-19T01:52:47;99418.81;;;10.55;95.92
62703;BME280;66022;50.448;18.122;2023-04-19T01:57:01;99413.65;;;10.52;97.29
62703;BME280;66022;50.448;18.122;2023-04-19T02:01:15;99409.91;;;10.50;95.58
62703;BME280;66022;50.448;18.122;2023-04-19T02:05:29;99406.76;;;10.47;95.53
62703;BME280;66022;50.448;18.122;2023-04-19T02:09:43;99402.97;;;10.44;95.97
62703;BME280;66022;50.448;18.122;2023-04-19T02:13:57;99398.82;;;10.41;95.26
62703;BME280;66022;50.448;18.122;2023-04-19T02:18:11;99395.31;;;10.36;96.38
62703;BME280;66022;50.448;18.122;2023-04-19T02:22:25;99391.94;;;10.33;95.71
62703;BME280;66022;50.448;18.122;2023-04-19T02:26:39;99388.36;;;10.28;98.32
62703;BME280;66022;50.448;18.122;2023-04-19T02:30:53;99384.97;;;10.26;96.65
62703;BME280;66022;50.448;18.122;2023-04-19T02:35:07;99380.33;;;10.22;96.46
62703;BME280;66022;50.448;18.122;2023-04-19T02:39:21;99376.31;;;10.18;97.90
62703;BME280;66022;50.448;18.122;2023-04-19T02:43:35;99372.02;;;10.13;98.00
62703;BME280;66022;50.448;18.122;2023-04-19T02:47:49;99367.88;;;10.06;100.00
62703;BME280;66022;50.448;18.122;2023-04-19T02:52:03;99366.85;;;9.98;99.36
62703;BME280;66022;50.448;18.122;2023-04-19T02:56:17;99368.19;;;9.89;100.00
62703;BME280;66022;50.448;18.122;2023-04-19T03:00:31;99369.01;;;9.85;100.00
62703;BME280;66022;50.448;18.122;2023-04-19T03:04:45;99367.83;;;9.80;100.00
62703;BME280;66022;50.448;18.122;2023-04-19T03:08:59;99365.23;;;9.76;100.00
62703;BME280;66022;50.448;18.122;2023-04-19T03:13:13;99362.40;;;9.74;100.00
62703;BME280;66022;50.448;18.122;2023-04-19T03:17:27;99358.95;;;9.71;100.00
62703;BME280;66022;50.448;18.122;2023-04-19T03:21:41;99356.02;;;9.69;100.00
62703;BME280;66022;50.448;18.122;2023-04-19T03:25:55;99353.47;;;9.66;100.00
62703;BME280;66022;50.448;18.122;2023-04-19T03:30:09;99351.39;;;9.66;100.00
62703;BME280;66022;50.448;18.122;2023-04-19T03:34:23;99347.78;;;9.64;100.00
62703;BME280;66022;50.448;18.122;2023-04-19T03:38:37;99345.23;;;9.62;100.00
62703;BME280;66022;50.448;18.122;2023-04-19T03:42:51;99342.92;;;9.61;100.00
62703;BME280;66022;50.448;18.122;2023-04-19T03:47:05;99339.51;;;9.59;100.00
62703;BME280;66022;50.448;18.122;2023-04-19T03:51:19;99338.26;;;9.59;100.00
62703;BME280;66022;50.448;18.122;2023-04-19T03:55:33;99335.50;;;9.58;100.00
62703;BME280;66022;50.448;18.122;2023-04-19T03:59:47;99332.92;;;9.57;100.00
62703;BME280;66022;50.448;18.122;2023-04-19T04:04:01;99331.42;;;9.55;100.00
62703;BME280;66022;50.448;18.122;2023-04-19T04:08:15;99330.25;;;9.51;100.00
62703;BME280;66022;50.448;18.122;2023-04-19T04:12:29;99328.59;;;9.49;99.83
62703;BME280;66022;50.448;18.122;2023-04-19T04:16:43;99327.64;;;9.46;100.00
62703;BME280;66022;50.448;18.122;2023-04-19T04:20:57;99327.49;;;9.44;99.69
62703;BME280;66022;50.448;18.122;2023-04-19T04:25:11;99329.06;;;9.41;99.82
62703;BME280;66022;50.448;18.122;2023-04-19T04:29:25;99329.43;;;9.38;100.00
62703;BME280;66022;50.448;18.122;2023-04-19T04:33:39;99330.51;;;9.35;99.84
62703;BME280;66022;50.448;18.122;2023-04-19T04:37:53;99330.27;;;9.30;100.00
62703;BME280;66022;50.448;18.122;2023-04-19T04:42:07;99329.97;;;9.27;100.00
62703;BME280;66022;50.448;18.122;2023-04-19T04:46:21;99329.53;;;9.22;100.00
62703;BME280;66022;50.448;18.122;2023-04-19T04:50:35;99329.55;;;9.21;100.00
62703;BME280;66022;50.448;18.122;2023-04-19T04:54:49;99329.35;;;9.19;99.55
62703;BME280;66022;50.448;18.122;2023-04-19T04:59:03;99329.08;;;9.14;100.00
62703;BME280;66022;50.448;18.122;2023-04-19T05:03:17;99329.65;;;9.10;99.65
62703;BME280;66022;50.448;18.122;2023-04-19T05:07:31;99329.69;;;9.06;100.00
62703;BME280;66022;50.448;18.122;2023-04-19T05:11:45;99328.15;;;9.03;98.58
62703;BME280;66022;50.448;18.122;2023-04-19T05:15:59;99328.16;;;8.97;100.00
62703;BME280;66022;50.448;18.122;2023-04-19T05:20:13;99327.36;;;8.93;99.27
62703;BME280;66022;50.448;18.122;2023-04-19T05:24:27;99326.50;;;8.90;98.12
62703;BME280;66022;50.448;18.122;2023-04-19T05:28:42;99325.39;;;8.86;99.05
62703;BME280;66022;50.448;18.122;2023-04-19T05:32:55;99325.66;;;8.84;97.19
62703;BME280;66022;50.448;18.122;2023-04-19T05:37:09;99326.98;;;8.79;98.86
62703;BME280;66022;50.448;18.122;2023-04-19T05:41:23;99328.37;;;8.77;96.79
62703;BME280;66022;50.448;18.122;2023-04-19T05:45:37;99329.58;;;8.73;97.00
62703;BME280;66022;50.448;18.122;2023-04-19T05:49:51;99328.13;;;8.69;96.87
62703;BME280;66022;50.448;18.122;2023-04-19T05:54:05;99327.29;;;8.64;96.70
62703;BME280;66022;50.448;18.122;2023-04-19T05:58:19;99326.12;;;8.56;97.24
62703;BME280;66022;50.448;18.122;2023-04-19T06:02:33;99324.58;;;8.51;96.54
62703;BME280;66022;50.448;18.122;2023-04-19T06:06:47;99324.59;;;8.44;98.67
62703;BME280;66022;50.448;18.122;2023-04-19T06:11:01;99324.45;;;8.40;96.84
62703;BME280;66022;50.448;18.122;2023-04-19T06:15:15;99324.83;;;8.37;95.49
62703;BME280;66022;50.448;18.122;2023-04-19T06:19:29;99326.17;;;8.36;95.35
62703;BME280;66022;50.448;18.122;2023-04-19T06:23:43;99327.94;;;8.36;95.83
62703;BME280;66022;50.448;18.122;2023-04-19T06:27:57;99330.55;;;8.35;95.30
62703;BME280;66022;50.448;18.122;2023-04-19T06:32:11;99332.61;;;8.36;94.20
62703;BME280;66022;50.448;18.122;2023-04-19T06:53:21;99345.42;;;8.36;93.84
62703;BME280;66022;50.448;18.122;2023-04-19T06:57:35;99347.02;;;8.36;93.58
62703;BME280;66022;50.448;18.122;2023-04-19T07:01:49;99349.00;;;8.37;93.07
62703;BME280;66022;50.448;18.122;2023-04-19T07:06:03;99353.16;;;8.35;95.91
62703;BME280;66022;50.448;18.122;2023-04-19T07:10:17;99356.75;;;8.35;92.09
62703;BME280;66022;50.448;18.122;2023-04-19T07:14:31;99359.86;;;8.34;92.25
62703;BME280;66022;50.448;18.122;2023-04-19T07:18:45;99362.42;;;8.30;93.37
62703;BME280;66022;50.448;18.122;2023-04-19T07:22:59;99365.26;;;8.28;92.24
62703;BME280;66022;50.448;18.122;2023-04-19T07:27:13;99366.71;;;8.26;91.87
62703;BME280;66022;50.448;18.122;2023-04-19T07:31:27;99367.97;;;8.25;91.96
62703;BME280;66022;50.448;18.122;2023-04-19T07:35:41;99368.58;;;8.25;92.96
62703;BME280;66022;50.448;18.122;2023-04-19T07:39:55;99368.25;;;8.25;92.33
62703;BME280;66022;50.448;18.122;2023-04-19T07:44:09;99365.66;;;8.24;91.57
62703;BME280;66022;50.448;18.122;2023-04-19T07:48:23;99363.87;;;8.19;91.76
62703;BME280;66022;50.448;18.122;2023-04-19T07:52:37;99361.61;;;8.18;92.14
62703;BME280;66022;50.448;18.122;2023-04-19T07:56:51;99360.22;;;8.16;93.73
62703;BME280;66022;50.448;18.122;2023-04-19T08:01:05;99359.89;;;8.15;91.87
62703;BME280;66022;50.448;18.122;2023-04-19T08:05:22;99360.75;;;8.14;90.96
62703;BME280;66022;50.448;18.122;2023-04-19T08:09:33;99360.28;;;8.11;91.58
62703;BME280;66022;50.448;18.122;2023-04-19T08:13:47;99359.70;;;8.10;90.81
62703;BME280;66022;50.448;18.122;2023-04-19T08:18:01;99359.91;;;8.06;91.52
62703;BME280;66022;50.448;18.122;2023-04-19T08:22:16;99359.43;;;8.05;91.02
62703;BME280;66022;50.448;18.122;2023-04-19T08:26:30;99359.55;;;8.00;92.96
62703;BME280;66022;50.448;18.122;2023-04-19T08:30:43;99359.66;;;7.98;91.84
62703;BME280;66022;50.448;18.122;2023-04-19T08:34:57;99359.94;;;7.95;91.29
62703;BME280;66022;50.448;18.122;2023-04-19T08:39:11;99359.63;;;7.90;92.28
62703;BME280;66022;50.448;18.122;2023-04-19T08:43:25;99360.71;;;7.85;92.78
62703;BME280;66022;50.448;18.122;2023-04-19T08:47:39;99362.10;;;7.79;93.63
62703;BME280;66022;50.448;18.122;2023-04-19T08:51:53;99361.99;;;7.75;93.15
62703;BME280;66022;50.448;18.122;2023-04-19T08:56:07;99361.61;;;7.68;95.29
62703;BME280;66022;50.448;18.122;2023-04-19T09:00:21;99359.46;;;7.64;93.07
62703;BME280;66022;50.448;18.122;2023-04-19T09:04:36;99358.48;;;7.60;93.66
62703;BME280;66022;50.448;18.122;2023-04-19T09:08:49;99358.28;;;7.57;94.03
62703;BME280;66022;50.448;18.122;2023-04-19T09:13:04;99356.94;;;7.57;92.84
62703;BME280;66022;50.448;18.122;2023-04-19T09:17:18;99355.02;;;7.57;95.26
62703;BME280;66022;50.448;18.122;2023-04-19T09:21:31;99352.89;;;7.60;94.13
62703;BME280;66022;50.448;18.122;2023-04-19T09:29:59;99349.47;;;7.67;93.43
62703;BME280;66022;50.448;18.122;2023-04-19T09:34:14;99349.28;;;7.72;93.12
62703;BME280;66022;50.448;18.122;2023-04-19T09:38:27;99349.27;;;7.73;93.99
62703;BME280;66022;50.448;18.122;2023-04-19T09:42:44;99350.58;;;7.76;93.67
62703;BME280;66022;50.448;18.122;2023-04-19T09:46:55;99351.06;;;7.77;95.73
62703;BME280;66022;50.448;18.122;2023-04-19T09:51:09;99353.23;;;7.79;92.96
62703;BME280;66022;50.448;18.122;2023-04-19T09:55:23;99355.88;;;7.80;92.41
62703;BME280;66022;50.448;18.122;2023-04-19T09:59:37;99356.91;;;7.81;92.76
62703;BME280;66022;50.448;18.122;2023-04-19T10:03:51;99357.96;;;7.82;93.30
62703;BME280;66022;50.448;18.122;2023-04-19T10:08:09;99358.14;;;7.81;93.25
62703;BME280;66022;50.448;18.122;2023-04-19T10:12:20;99359.38;;;7.82;92.26
62703;BME280;66022;50.448;18.122;2023-04-19T10:16:34;99359.74;;;7.80;95.67
62703;BME280;66022;50.448;18.122;2023-04-19T10:29:15;99357.50;;;7.79;92.98
62703;BME280;66022;50.448;18.122;2023-04-19T10:33:30;99357.08;;;7.78;90.83
62703;BME280;66022;50.448;18.122;2023-04-19T10:41:57;99358.31;;;7.73;91.44
62703;BME280;66022;50.448;18.122;2023-04-19T10:46:16;99358.94;;;7.66;95.15
62703;BME280;66022;50.448;18.122;2023-04-19T10:50:25;99360.57;;;7.63;91.85
62703;BME280;66022;50.448;18.122;2023-04-19T10:54:39;99362.03;;;7.58;93.58
62703;BME280;66022;50.448;18.122;2023-04-19T11:03:52;99367.70;;;7.51;93.09
62703;BME280;66022;50.448;18.122;2023-04-19T11:07:22;99371.30;;;7.48;94.98
62703;BME280;66022;50.448;18.122;2023-04-19T11:11:36;99373.49;;;7.47;93.04
62703;BME280;66022;50.448;18.122;2023-04-19T11:15:49;99375.51;;;7.44;95.39
62703;BME280;66022;50.448;18.122;2023-04-19T11:20:04;99376.70;;;7.44;93.24
62703;BME280;66022;50.448;18.122;2023-04-19T11:24:17;99376.37;;;7.44;92.48
62703;BME280;66022;50.448;18.122;2023-04-19T11:28:32;99375.36;;;7.43;94.02
62703;BME280;66022;50.448;18.122;2023-04-19T11:32:46;99374.34;;;7.44;93.58
62703;BME280;66022;50.448;18.122;2023-04-19T11:37:00;99373.35;;;7.44;94.84
62703;BME280;66022;50.448;18.122;2023-04-19T11:41:14;99373.50;;;7.46;92.44
62703;BME280;66022;50.448;18.122;2023-04-19T11:45:28;99373.83;;;7.46;93.36
62703;BME280;66022;50.448;18.122;2023-04-19T11:49:42;99374.74;;;7.46;93.65
62703;BME280;66022;50.448;18.122;2023-04-19T11:53:55;99377.00;;;7.48;93.67
62703;BME280;66022;50.448;18.122;2023-04-19T11:58:21;99378.34;;;7.45;92.96
62703;BME280;66022;50.448;18.122;2023-04-19T12:02:23;99378.59;;;7.45;92.74
62703;BME280;66022;50.448;18.122;2023-04-19T12:06:37;99379.04;;;7.43;97.35
62703;BME280;66022;50.448;18.122;2023-04-19T12:10:55;99379.78;;;7.43;93.46
62703;BME280;66022;50.448;18.122;2023-04-19T12:15:06;99379.46;;;7.43;93.90
62703;BME280;66022;50.448;18.122;2023-04-19T12:19:19;99376.95;;;7.42;94.55
62703;BME280;66022;50.448;18.122;2023-04-19T12:23:33;99375.84;;;7.45;93.48
62703;BME280;66022;50.448;18.122;2023-04-19T12:27:48;99376.57;;;7.47;94.85
62703;BME280;66022;50.448;18.122;2023-04-19T12:32:01;99377.89;;;7.50;93.03
62703;BME280;66022;50.448;18.122;2023-04-19T12:36:15;99377.92;;;7.49;95.84
62703;BME280;66022;50.448;18.122;2023-04-19T12:40:30;99378.81;;;7.53;92.12
62703;BME280;66022;50.448;18.122;2023-04-19T12:44:43;99379.94;;;7.56;92.90
62703;BME280;66022;50.448;18.122;2023-04-19T12:48:58;99380.03;;;7.57;93.58
62703;BME280;66022;50.448;18.122;2023-04-19T12:53:12;99381.42;;;7.59;92.16
62703;BME280;66022;50.448;18.122;2023-04-19T12:57:26;99382.67;;;7.59;94.00
62703;BME280;66022;50.448;18.122;2023-04-19T13:01:40;99382.93;;;7.59;92.59
62703;BME280;66022;50.448;18.122;2023-04-19T13:05:54;99383.29;;;7.56;95.07
62703;BME280;66022;50.448;18.122;2023-04-19T13:10:08;99384.45;;;7.56;93.36
62703;BME280;66022;50.448;18.122;2023-04-19T13:14:22;99383.36;;;7.56;94.63
62703;BME280;66022;50.448;18.122;2023-04-19T13:18:36;99381.78;;;7.54;94.29
62703;BME280;66022;50.448;18.122;2023-04-19T13:22:50;99381.95;;;7.55;94.03
62703;BME280;66022;50.448;18.122;2023-04-19T13:27:04;99380.29;;;7.54;96.50
62703;BME280;66022;50.448;18.122;2023-04-19T13:31:18;99379.03;;;7.55;95.09
62703;BME280;66022;50.448;18.122;2023-04-19T13:35:32;99377.95;;;7.55;93.88
62703;BME280;66022;50.448;18.122;2023-04-19T13:39:45;99377.70;;;7.55;94.94
62703;BME280;66022;50.448;18.122;2023-04-19T13:44:00;99378.02;;;7.54;93.73
62703;BME280;66022;50.448;18.122;2023-04-19T13:48:13;99378.63;;;7.52;94.91
62703;BME280;66022;50.448;18.122;2023-04-19T13:52:28;99378.88;;;7.54;94.29
62703;BME280;66022;50.448;18.122;2023-04-19T13:56:42;99378.38;;;7.53;97.56
62703;BME280;66022;50.448;18.122;2023-04-19T14:00:56;99378.05;;;7.55;94.17
62703;BME280;66022;50.448;18.122;2023-04-19T14:05:10;99377.60;;;7.55;93.90
62703;BME280;66022;50.448;18.122;2023-04-19T14:09:24;99376.03;;;7.55;93.75
62703;BME280;66022;50.448;18.122;2023-04-19T14:13:38;99375.51;;;7.56;93.58
62703;BME280;66022;50.448;18.122;2023-04-19T14:17:52;99373.25;;;7.54;95.71
62703;BME280;66022;50.448;18.122;2023-04-19T14:22:05;99374.19;;;7.55;93.99
62703;BME280;66022;50.448;18.122;2023-04-19T14:26:20;99373.46;;;7.51;98.44
62703;BME280;66022;50.448;18.122;2023-04-19T14:30:34;99371.35;;;7.52;95.21
62703;BME280;66022;50.448;18.122;2023-04-19T14:34:48;99369.26;;;7.53;94.50
62703;BME280;66022;50.448;18.122;2023-04-19T14:39:02;99367.10;;;7.53;94.79
62703;BME280;66022;50.448;18.122;2023-04-19T14:43:16;99366.17;;;7.55;94.04
62703;BME280;66022;50.448;18.122;2023-04-19T14:47:30;99365.16;;;7.54;96.79
62703;BME280;66022;50.448;18.122;2023-04-19T14:51:44;99365.91;;;7.54;94.81
62703;BME280;66022;50.448;18.122;2023-04-19T14:55:57;99365.86;;;7.51;97.45
62703;BME280;66022;50.448;18.122;2023-04-19T15:00:12;99364.95;;;7.51;94.90
62703;BME280;66022;50.448;18.122;2023-04-19T15:04:26;99363.00;;;7.50;95.16
62703;BME280;66022;50.448;18.122;2023-04-19T15:08:40;99363.69;;;7.48;95.11
62703;BME280;66022;50.448;18.122;2023-04-19T15:12:54;99365.04;;;7.48;95.22
62703;BME280;66022;50.448;18.122;2023-04-19T15:17:08;99366.74;;;7.46;97.55
62703;BME280;66022;50.448;18.122;2023-04-19T15:21:21;99368.73;;;7.45;95.63
62703;BME280;66022;50.448;18.122;2023-04-19T15:25:36;99370.67;;;7.43;95.32
62703;BME280;66022;50.448;18.122;2023-04-19T15:29:50;99372.52;;;7.41;96.18
62703;BME280;66022;50.448;18.122;2023-04-19T15:34:04;99373.72;;;7.40;96.10
62703;BME280;66022;50.448;18.122;2023-04-19T15:38:19;99373.33;;;7.36;96.16
62703;BME280;66022;50.448;18.122;2023-04-19T15:42:32;99373.58;;;7.36;95.34
62703;BME280;66022;50.448;18.122;2023-04-19T15:46:46;99374.76;;;7.33;98.80
62703;BME280;66022;50.448;18.122;2023-04-19T15:51:00;99376.44;;;7.33;96.17
62703;BME280;66022;50.448;18.122;2023-04-19T15:55:14;99379.03;;;7.32;96.75
62703;BME280;66022;50.448;18.122;2023-04-19T15:59:28;99383.23;;;7.30;97.69
62703;BME280;66022;50.448;18.122;2023-04-19T16:03:42;99386.16;;;7.31;96.80
62703;BME280;66022;50.448;18.122;2023-04-19T16:08:06;99388.34;;;7.30;98.41
62703;BME280;66022;50.448;18.122;2023-04-19T16:12:10;99389.39;;;7.32;96.65
62703;BME280;66022;50.448;18.122;2023-04-19T16:16:24;99389.67;;;7.29;100.00
62703;BME280;66022;50.448;18.122;2023-04-19T16:20:38;99390.67;;;7.30;97.36
62703;BME280;66022;50.448;18.122;2023-04-19T16:24:52;99392.41;;;7.31;96.77
62703;BME280;66022;50.448;18.122;2023-04-19T16:29:06;99394.17;;;7.31;98.26
62703;BME280;66022;50.448;18.122;2023-04-19T16:33:20;99396.41;;;7.32;97.12
62703;BME280;66022;50.448;18.122;2023-04-19T16:37:34;99398.01;;;7.31;98.80
62703;BME280;66022;50.448;18.122;2023-04-19T16:41:48;99398.27;;;7.33;97.36
62703;BME280;66022;50.448;18.122;2023-04-19T16:46:02;99400.11;;;7.32;100.00
62703;BME280;66022;50.448;18.122;2023-04-19T16:50:16;99401.09;;;7.33;98.24
62703;BME280;66022;50.448;18.122;2023-04-19T16:54:30;99401.92;;;7.34;97.32
62703;BME280;66022;50.448;18.122;2023-04-19T16:58:44;99402.51;;;7.33;98.30
62703;BME280;66022;50.448;18.122;2023-04-19T17:02:58;99403.42;;;7.34;97.55
62703;BME280;66022;50.448;18.122;2023-04-19T17:07:12;99404.52;;;7.33;99.25
62703;BME280;66022;50.448;18.122;2023-04-19T17:11:26;99406.11;;;7.33;97.77
62703;BME280;66022;50.448;18.122;2023-04-19T17:15:40;99408.53;;;7.33;97.99
62703;BME280;66022;50.448;18.122;2023-04-19T17:19:54;99411.71;;;7.33;98.35
62703;BME280;66022;50.448;18.122;2023-04-19T17:24:08;99416.49;;;7.33;98.14
62703;BME280;66022;50.448;18.122;2023-04-19T17:28:22;99421.25;;;7.30;99.64
62703;BME280;66022;50.448;18.122;2023-04-19T17:32:36;99425.19;;;7.30;98.19
62703;BME280;66022;50.448;18.122;2023-04-19T17:36:50;99427.87;;;7.29;100.00
62703;BME280;66022;50.448;18.122;2023-04-19T17:41:04;99431.20;;;7.29;98.16
62703;BME280;66022;50.448;18.122;2023-04-19T17:45:18;99434.04;;;7.29;97.83
62703;BME280;66022;50.448;18.122;2023-04-19T17:49:32;99436.39;;;7.29;97.81
62703;BME280;66022;50.448;18.122;2023-04-19T17:53:46;99439.98;;;7.29;97.48
62703;BME280;66022;50.448;18.122;2023-04-19T17:58:00;99441.33;;;7.26;98.72
62703;BME280;66022;50.448;18.122;2023-04-19T18:02:14;99443.42;;;7.26;97.47
62703;BME280;66022;50.448;18.122;2023-04-19T18:06:28;99444.12;;;7.22;100.00
62703;BME280;66022;50.448;18.122;2023-04-19T18:10:42;99445.63;;;7.21;97.84
62703;BME280;66022;50.448;18.122;2023-04-19T18:14:55;99447.05;;;7.20;98.05
62703;BME280;66022;50.448;18.122;2023-04-19T18:19:10;99447.91;;;7.18;98.95
62703;BME280;66022;50.448;18.122;2023-04-19T18:23:24;99448.74;;;7.16;98.28
62703;BME280;66022;50.448;18.122;2023-04-19T18:27:38;99450.34;;;7.14;99.92
62703;BME280;66022;50.448;18.122;2023-04-19T18:31:52;99452.76;;;7.13;98.19
62703;BME280;66022;50.448;18.122;2023-04-19T18:36:06;99455.22;;;7.08;100.00
62703;BME280;66022;50.448;18.122;2023-04-19T18:40:20;99457.54;;;7.07;98.64
62703;BME280;66022;50.448;18.122;2023-04-19T18:44:34;99460.33;;;7.06;98.71
62703;BME280;66022;50.448;18.122;2023-04-19T18:48:48;99464.84;;;7.04;99.35
62703;BME280;66022;50.448;18.122;2023-04-19T18:53:02;99470.04;;;7.03;99.21
62703;BME280;66022;50.448;18.122;2023-04-19T18:57:16;99474.73;;;7.00;100.00
62703;BME280;66022;50.448;18.122;2023-04-19T19:01:30;99477.64;;;7.00;98.91
62703;BME280;66022;50.448;18.122;2023-04-19T19:05:44;99478.59;;;6.98;99.08
62703;BME280;66022;50.448;18.122;2023-04-19T19:09:58;99478.09;;;6.98;99.80
62703;BME280;66022;50.448;18.122;2023-04-19T19:14:12;99477.00;;;6.98;99.01
62703;BME280;66022;50.448;18.122;2023-04-19T19:18:26;99476.76;;;6.95;100.00
62703;BME280;66022;50.448;18.122;2023-04-19T19:22:40;99477.84;;;6.95;99.61
62703;BME280;66022;50.448;18.122;2023-04-19T19:26:54;99479.85;;;6.94;100.00
62703;BME280;66022;50.448;18.122;2023-04-19T19:31:08;99482.84;;;6.94;100.00
62703;BME280;66022;50.448;18.122;2023-04-19T19:35:22;99486.19;;;6.94;100.00
62703;BME280;66022;50.448;18.122;2023-04-19T19:39:36;99488.86;;;6.94;100.00
62703;BME280;66022;50.448;18.122;2023-04-19T19:43:50;99491.30;;;6.95;100.00
62703;BME280;66022;50.448;18.122;2023-04-19T19:48:04;99492.64;;;6.93;100.00
62703;BME280;66022;50.448;18.122;2023-04-19T19:52:18;99494.37;;;6.94;99.54
62703;BME280;66022;50.448;18.122;2023-04-19T19:56:32;99495.89;;;6.91;100.00
62703;BME280;66022;50.448;18.122;2023-04-19T20:00:46;99495.98;;;6.91;99.47
62703;BME280;66022;50.448;18.122;2023-04-19T20:05:00;99496.23;;;6.90;99.51
62703;BME280;66022;50.448;18.122;2023-04-19T20:09:14;99495.50;;;6.87;100.00
62703;BME280;66022;50.448;18.122;2023-04-19T20:13:28;99495.92;;;6.86;99.39
62703;BME280;66022;50.448;18.122;2023-04-19T20:17:42;99496.10;;;6.83;100.00
62703;BME280;66022;50.448;18.122;2023-04-19T20:21:56;99494.69;;;6.81;99.93
62703;BME280;66022;50.448;18.122;2023-04-19T20:26:10;99493.77;;;6.75;100.00
62703;BME280;66022;50.448;18.122;2023-04-19T20:30:24;99491.20;;;6.74;100.00
62703;BME280;66022;50.448;18.122;2023-04-19T20:34:38;99490.20;;;6.72;100.00
62703;BME280;66022;50.448;18.122;2023-04-19T20:38:52;99488.03;;;6.69;100.00
62703;BME280;66022;50.448;18.122;2023-04-19T20:43:06;99486.28;;;6.67;99.91
62703;BME280;66022;50.448;18.122;2023-04-19T20:47:23;99484.12;;;6.65;100.00
62703;BME280;66022;50.448;18.122;2023-04-19T20:51:34;99482.53;;;6.64;99.83
62703;BME280;66022;50.448;18.122;2023-04-19T20:55:48;99481.70;;;6.62;100.00
62703;BME280;66022;50.448;18.122;2023-04-19T21:00:02;99482.05;;;6.61;100.00
62703;BME280;66022;50.448;18.122;2023-04-19T21:04:16;99483.04;;;6.61;100.00
62703;BME280;66022;50.448;18.122;2023-04-19T21:08:30;99484.64;;;6.59;100.00
62703;BME280;66022;50.448;18.122;2023-04-19T21:12:44;99485.72;;;6.61;99.38
62703;BME280;66022;50.448;18.122;2023-04-19T21:16:58;99486.55;;;6.63;100.00
62703;BME280;66022;50.448;18.122;2023-04-19T21:21:12;99486.61;;;6.67;99.15
62703;BME280;66022;50.448;18.122;2023-04-19T21:25:26;99487.27;;;6.71;98.97
62703;BME280;66022;50.448;18.122;2023-04-19T21:29:40;99486.51;;;6.73;99.42
62703;BME280;66022;50.448;18.122;2023-04-19T21:33:54;99485.25;;;6.75;98.82
62703;BME280;66022;50.448;18.122;2023-04-19T21:38:08;99484.52;;;6.74;100.00
62703;BME280;66022;50.448;18.122;2023-04-19T21:42:22;99484.50;;;6.75;99.63
62703;BME280;66022;50.448;18.122;2023-04-19T21:46:36;99484.67;;;6.73;100.00
62703;BME280;66022;50.448;18.122;2023-04-19T21:50:50;99486.77;;;6.74;99.37
62703;BME280;66022;50.448;18.122;2023-04-19T21:55:04;99489.37;;;6.74;99.81
62703;BME280;66022;50.448;18.122;2023-04-19T21:59:18;99490.53;;;6.73;99.93
62703;BME280;66022;50.448;18.122;2023-04-19T22:03:32;99491.30;;;6.72;99.74
62703;BME280;66022;50.448;18.122;2023-04-19T22:07:46;99493.20;;;6.71;100.00
62703;BME280;66022;50.448;18.122;2023-04-19T22:12:00;99493.63;;;6.70;99.95
62703;BME280;66022;50.448;18.122;2023-04-19T22:16:16;99495.54;;;6.66;100.00
62703;BME280;66022;50.448;18.122;2023-04-19T22:20:28;99497.97;;;6.66;100.00
62703;BME280;66022;50.448;18.122;2023-04-19T22:24:42;99498.74;;;6.65;99.88
62703;BME280;66022;50.448;18.122;2023-04-19T22:28:56;99499.22;;;6.64;100.00
62703;BME280;66022;50.448;18.122;2023-04-19T22:33:10;99499.97;;;6.64;99.83
62703;BME280;66022;50.448;18.122;2023-04-19T22:37:24;99500.73;;;6.64;100.00
62703;BME280;66022;50.448;18.122;2023-04-19T22:41:38;99500.81;;;6.64;99.94
62703;BME280;66022;50.448;18.122;2023-04-19T22:45:52;99499.83;;;6.63;100.00
62703;BME280;66022;50.448;18.122;2023-04-19T22:50:07;99499.56;;;6.64;100.00
62703;BME280;66022;50.448;18.122;2023-04-19T22:54:20;99499.56;;;6.64;100.00
62703;BME280;66022;50.448;18.122;2023-04-19T22:58:34;99500.09;;;6.63;100.00